sensor_id;sensor_type;location;lat;lon;timestamp;P1;durP1;ratioP1;P2;durP2;ratioP2
17959;SDS011;9105;53.552;9.980;2023-07-20T00:02:23;7.30;;;2.90;;
17959;SDS011;9105;53.552;9.980;2023-07-20T00:04:56;3.67;;;2.80;;
17959;SDS011;9105;53.552;9.980;2023-07-20T00:07:21;3.00;;;2.70;;
17959;SDS011;9105;53.552;9.980;2023-07-20T00:09:47;5.68;;;3.33;;
17959;SDS011;9105;53.552;9.980;2023-07-20T00:12:13;5.32;;;2.83;;
17959;SDS011;9105;53.552;9.980;2023-07-20T00:14:39;4.43;;;2.92;;
17959;SDS011;9105;53.552;9.980;2023-07-20T00:17:04;4.03;;;2.92;;
17959;SDS011;9105;53.552;9.980;2023-07-20T00:19:30;4.07;;;2.80;;
17959;SDS011;9105;53.552;9.980;2023-07-20T00:21:57;4.03;;;2.35;;
17959;SDS011;9105;53.552;9.980;2023-07-20T00:24:22;3.15;;;2.35;;
17959;SDS011;9105;53.552;9.980;2023-07-20T00:26:48;3.92;;;2.22;;
17959;SDS011;9105;53.552;9.980;2023-07-20T00:29:13;3.63;;;2.50;;
17959;SDS011;9105;53.552;9.980;2023-07-20T00:31:39;3.40;;;2.33;;
17959;SDS011;9105;53.552;9.980;2023-07-20T00:34:04;3.75;;;2.50;;
17959;SDS011;9105;53.552;9.980;2023-07-20T00:36:30;4.15;;;2.10;;
17959;SDS011;9105;53.552;9.980;2023-07-20T00:38:55;3.72;;;2.17;;
17959;SDS011;9105;53.552;9.980;2023-07-20T00:41:21;5.50;;;2.20;;
17959;SDS011;9105;53.552;9.980;2023-07-20T00:43:47;2.88;;;2.10;;
17959;SDS011;9105;53.552;9.980;2023-07-20T00:46:12;6.20;;;1.98;;
17959;SDS011;9105;53.552;9.980;2023-07-20T00:48:38;2.97;;;2.20;;
17959;SDS011;9105;53.552;9.980;2023-07-20T00:51:04;4.38;;;2.25;;
17959;SDS011;9105;53.552;9.980;2023-07-20T00:53:30;4.75;;;2.20;;
17959;SDS011;9105;53.552;9.980;2023-07-20T00:55:55;5.05;;;2.78;;
17959;SDS011;9105;53.552;9.980;2023-07-20T00:58:21;4.32;;;2.75;;
17959;SDS011;9105;53.552;9.980;2023-07-20T01:00:47;4.22;;;2.90;;
17959;SDS011;9105;53.552;9.980;2023-07-20T01:03:12;4.55;;;2.92;;
17959;SDS011;9105;53.552;9.980;2023-07-20T01:05:40;4.15;;;3.00;;
17959;SDS011;9105;53.552;9.980;2023-07-20T01:08:18;4.40;;;3.40;;
17959;SDS011;9105;53.552;9.980;2023-07-20T01:10:50;5.37;;;3.87;;
17959;SDS011;9105;53.552;9.980;2023-07-20T01:13:22;3.97;;;3.38;;
17959;SDS011;9105;53.552;9.980;2023-07-20T01:16:00;5.45;;;3.17;;
17959;SDS011;9105;53.552;9.980;2023-07-20T01:18:25;6.78;;;4.00;;
17959;SDS011;9105;53.552;9.980;2023-07-20T01:20:51;4.20;;;3.80;;
17959;SDS011;9105;53.552;9.980;2023-07-20T01:23:37;5.13;;;3.72;;
17959;SDS011;9105;53.552;9.980;2023-07-20T01:29:31;5.35;;;3.90;;
17959;SDS011;9105;53.552;9.980;2023-07-20T01:34:32;6.78;;;4.50;;
17959;SDS011;9105;53.552;9.980;2023-07-20T01:37:00;5.93;;;3.15;;
17959;SDS011;9105;53.552;9.980;2023-07-20T01:39:26;6.70;;;5.03;;
17959;SDS011;9105;53.552;9.980;2023-07-20T01:41:51;8.52;;;5.10;;
17959;SDS011;9105;53.552;9.980;2023-07-20T01:44:17;7.18;;;4.50;;
17959;SDS011;9105;53.552;9.980;2023-07-20T01:46:43;7.97;;;5.38;;
17959;SDS011;9105;53.552;9.980;2023-07-20T01:49:08;6.43;;;5.05;;
17959;SDS011;9105;53.552;9.980;2023-07-20T01:51:34;8.90;;;5.20;;
17959;SDS011;9105;53.552;9.980;2023-07-20T01:53:59;6.53;;;5.00;;
17959;SDS011;9105;53.552;9.980;2023-07-20T01:56:25;7.22;;;5.28;;
17959;SDS011;9105;53.552;9.980;2023-07-20T01:58:50;7.18;;;5.20;;
17959;SDS011;9105;53.552;9.980;2023-07-20T02:01:15;6.53;;;5.68;;
17959;SDS011;9105;53.552;9.980;2023-07-20T02:03:41;7.85;;;5.03;;
17959;SDS011;9105;53.552;9.980;2023-07-20T02:06:06;5.85;;;5.22;;
17959;SDS011;9105;53.552;9.980;2023-07-20T02:08:32;9.35;;;6.93;;
17959;SDS011;9105;53.552;9.980;2023-07-20T02:10:57;8.63;;;6.07;;
17959;SDS011;9105;53.552;9.980;2023-07-20T02:13:23;9.68;;;5.75;;
17959;SDS011;9105;53.552;9.980;2023-07-20T02:15:49;7.32;;;5.47;;
17959;SDS011;9105;53.552;9.980;2023-07-20T02:18:16;7.47;;;6.25;;
17959;SDS011;9105;53.552;9.980;2023-07-20T02:20:41;7.95;;;5.93;;
17959;SDS011;9105;53.552;9.980;2023-07-20T02:23:07;6.63;;;5.18;;
17959;SDS011;9105;53.552;9.980;2023-07-20T02:25:32;5.97;;;4.60;;
17959;SDS011;9105;53.552;9.980;2023-07-20T02:27:58;8.32;;;5.63;;
17959;SDS011;9105;53.552;9.980;2023-07-20T02:30:23;9.77;;;6.32;;
17959;SDS011;9105;53.552;9.980;2023-07-20T02:32:49;7.68;;;5.85;;
17959;SDS011;9105;53.552;9.980;2023-07-20T02:35:15;7.65;;;5.90;;
17959;SDS011;9105;53.552;9.980;2023-07-20T02:37:40;7.68;;;6.22;;
17959;SDS011;9105;53.552;9.980;2023-07-20T02:40:06;6.45;;;5.50;;
17959;SDS011;9105;53.552;9.980;2023-07-20T02:42:32;8.05;;;6.13;;
17959;SDS011;9105;53.552;9.980;2023-07-20T02:44:58;8.23;;;6.18;;
17959;SDS011;9105;53.552;9.980;2023-07-20T02:47:23;10.15;;;6.60;;
17959;SDS011;9105;53.552;9.980;2023-07-20T02:49:49;6.45;;;5.30;;
17959;SDS011;9105;53.552;9.980;2023-07-20T02:52:14;8.20;;;5.90;;
17959;SDS011;9105;53.552;9.980;2023-07-20T02:54:40;7.25;;;6.50;;
17959;SDS011;9105;53.552;9.980;2023-07-20T02:57:05;9.02;;;6.40;;
17959;SDS011;9105;53.552;9.980;2023-07-20T02:59:31;9.02;;;6.43;;
17959;SDS011;9105;53.552;9.980;2023-07-20T03:01:56;8.23;;;6.80;;
17959;SDS011;9105;53.552;9.980;2023-07-20T03:04:23;8.18;;;6.72;;
17959;SDS011;9105;53.552;9.980;2023-07-20T03:06:49;8.27;;;6.90;;
17959;SDS011;9105;53.552;9.980;2023-07-20T03:09:14;9.00;;;6.85;;
17959;SDS011;9105;53.552;9.980;2023-07-20T03:11:40;8.38;;;7.07;;
17959;SDS011;9105;53.552;9.980;2023-07-20T03:14:06;9.73;;;6.57;;
17959;SDS011;9105;53.552;9.980;2023-07-20T03:16:31;11.27;;;6.97;;
17959;SDS011;9105;53.552;9.980;2023-07-20T03:18:58;10.15;;;7.25;;
17959;SDS011;9105;53.552;9.980;2023-07-20T03:21:25;9.20;;;6.63;;
17959;SDS011;9105;53.552;9.980;2023-07-20T03:23:51;8.45;;;7.00;;
17959;SDS011;9105;53.552;9.980;2023-07-20T03:26:16;7.75;;;6.55;;
17959;SDS011;9105;53.552;9.980;2023-07-20T03:28:41;9.55;;;6.63;;
17959;SDS011;9105;53.552;9.980;2023-07-20T03:31:07;7.75;;;6.32;;
17959;SDS011;9105;53.552;9.980;2023-07-20T03:33:33;7.40;;;5.93;;
17959;SDS011;9105;53.552;9.980;2023-07-20T03:35:59;7.80;;;6.50;;
17959;SDS011;9105;53.552;9.980;2023-07-20T03:38:25;8.80;;;7.03;;
17959;SDS011;9105;53.552;9.980;2023-07-20T03:40:59;8.55;;;6.88;;
17959;SDS011;9105;53.552;9.980;2023-07-20T03:43:25;8.75;;;6.53;;
17959;SDS011;9105;53.552;9.980;2023-07-20T03:45:52;6.53;;;5.88;;
17959;SDS011;9105;53.552;9.980;2023-07-20T03:48:19;9.43;;;6.55;;
17959;SDS011;9105;53.552;9.980;2023-07-20T03:50:47;6.30;;;5.70;;
17959;SDS011;9105;53.552;9.980;2023-07-20T03:53:13;6.28;;;5.55;;
17959;SDS011;9105;53.552;9.980;2023-07-20T03:55:39;8.20;;;5.13;;
17959;SDS011;9105;53.552;9.980;2023-07-20T03:58:08;5.05;;;4.57;;
17959;SDS011;9105;53.552;9.980;2023-07-20T04:00:34;5.88;;;4.68;;
17959;SDS011;9105;53.552;9.980;2023-07-20T04:02:59;5.07;;;4.57;;
17959;SDS011;9105;53.552;9.980;2023-07-20T04:05:25;4.93;;;4.43;;
17959;SDS011;9105;53.552;9.980;2023-07-20T04:07:51;5.82;;;4.60;;
17959;SDS011;9105;53.552;9.980;2023-07-20T04:10:17;5.60;;;3.78;;
17959;SDS011;9105;53.552;9.980;2023-07-20T04:12:44;7.97;;;4.03;;
17959;SDS011;9105;53.552;9.980;2023-07-20T04:15:10;6.82;;;4.25;;
17959;SDS011;9105;53.552;9.980;2023-07-20T04:17:35;5.45;;;4.03;;
17959;SDS011;9105;53.552;9.980;2023-07-20T04:20:01;5.20;;;3.80;;
17959;SDS011;9105;53.552;9.980;2023-07-20T04:22:28;4.28;;;3.88;;
17959;SDS011;9105;53.552;9.980;2023-07-20T04:24:53;5.00;;;4.28;;
17959;SDS011;9105;53.552;9.980;2023-07-20T04:27:19;4.63;;;4.20;;
17959;SDS011;9105;53.552;9.980;2023-07-20T04:29:44;4.10;;;3.70;;
17959;SDS011;9105;53.552;9.980;2023-07-20T04:32:10;6.95;;;4.68;;
17959;SDS011;9105;53.552;9.980;2023-07-20T04:34:35;5.75;;;4.72;;
17959;SDS011;9105;53.552;9.980;2023-07-20T04:37:02;3.53;;;3.22;;
17959;SDS011;9105;53.552;9.980;2023-07-20T04:39:31;4.45;;;2.95;;
17959;SDS011;9105;53.552;9.980;2023-07-20T04:41:56;3.65;;;2.80;;
17959;SDS011;9105;53.552;9.980;2023-07-20T04:44:22;3.00;;;2.70;;
17959;SDS011;9105;53.552;9.980;2023-07-20T04:46:47;4.57;;;2.95;;
17959;SDS011;9105;53.552;9.980;2023-07-20T04:49:13;6.30;;;3.17;;
17959;SDS011;9105;53.552;9.980;2023-07-20T04:51:39;3.15;;;2.83;;
17959;SDS011;9105;53.552;9.980;2023-07-20T04:54:04;3.30;;;2.60;;
17959;SDS011;9105;53.552;9.980;2023-07-20T04:56:30;2.97;;;2.65;;
17959;SDS011;9105;53.552;9.980;2023-07-20T04:58:55;3.08;;;2.65;;
17959;SDS011;9105;53.552;9.980;2023-07-20T05:01:22;3.17;;;2.88;;
17959;SDS011;9105;53.552;9.980;2023-07-20T05:03:48;4.35;;;3.50;;
17959;SDS011;9105;53.552;9.980;2023-07-20T05:06:13;3.45;;;2.55;;
17959;SDS011;9105;53.552;9.980;2023-07-20T05:08:38;3.83;;;2.50;;
17959;SDS011;9105;53.552;9.980;2023-07-20T05:11:04;3.50;;;3.20;;
17959;SDS011;9105;53.552;9.980;2023-07-20T05:13:29;4.22;;;3.92;;
17959;SDS011;9105;53.552;9.980;2023-07-20T05:15:55;2.90;;;2.67;;
17959;SDS011;9105;53.552;9.980;2023-07-20T05:18:20;2.60;;;1.75;;
17959;SDS011;9105;53.552;9.980;2023-07-20T05:20:49;3.45;;;1.50;;
17959;SDS011;9105;53.552;9.980;2023-07-20T05:23:18;2.63;;;1.50;;
17959;SDS011;9105;53.552;9.980;2023-07-20T05:25:45;2.42;;;1.50;;
17959;SDS011;9105;53.552;9.980;2023-07-20T05:28:10;2.00;;;1.70;;
17959;SDS011;9105;53.552;9.980;2023-07-20T05:30:36;1.70;;;1.60;;
17959;SDS011;9105;53.552;9.980;2023-07-20T05:33:01;1.60;;;1.50;;
17959;SDS011;9105;53.552;9.980;2023-07-20T05:35:26;2.08;;;1.38;;
17959;SDS011;9105;53.552;9.980;2023-07-20T05:37:52;6.85;;;1.80;;
17959;SDS011;9105;53.552;9.980;2023-07-20T05:40:17;2.78;;;1.55;;
17959;SDS011;9105;53.552;9.980;2023-07-20T05:42:44;7.88;;;2.78;;
17959;SDS011;9105;53.552;9.980;2023-07-20T05:45:14;3.63;;;2.15;;
17959;SDS011;9105;53.552;9.980;2023-07-20T05:47:41;3.95;;;1.88;;
17959;SDS011;9105;53.552;9.980;2023-07-20T05:50:06;3.22;;;1.65;;
17959;SDS011;9105;53.552;9.980;2023-07-20T05:52:32;3.92;;;1.42;;
17959;SDS011;9105;53.552;9.980;2023-07-20T05:54:58;2.58;;;1.58;;
17959;SDS011;9105;53.552;9.980;2023-07-20T05:57:23;3.20;;;1.70;;
17959;SDS011;9105;53.552;9.980;2023-07-20T05:59:49;2.67;;;1.40;;
17959;SDS011;9105;53.552;9.980;2023-07-20T06:02:14;4.00;;;1.40;;
17959;SDS011;9105;53.552;9.980;2023-07-20T06:04:40;4.68;;;1.60;;
17959;SDS011;9105;53.552;9.980;2023-07-20T06:07:05;1.98;;;1.30;;
17959;SDS011;9105;53.552;9.980;2023-07-20T06:09:32;2.88;;;1.50;;
17959;SDS011;9105;53.552;9.980;2023-07-20T06:11:58;2.17;;;1.40;;
17959;SDS011;9105;53.552;9.980;2023-07-20T06:14:23;3.92;;;1.58;;
17959;SDS011;9105;53.552;9.980;2023-07-20T06:16:49;3.65;;;1.40;;
17959;SDS011;9105;53.552;9.980;2023-07-20T06:19:14;2.90;;;1.50;;
17959;SDS011;9105;53.552;9.980;2023-07-20T06:21:40;2.42;;;1.60;;
17959;SDS011;9105;53.552;9.980;2023-07-20T06:24:05;2.78;;;1.40;;
17959;SDS011;9105;53.552;9.980;2023-07-20T06:26:31;3.85;;;1.65;;
17959;SDS011;9105;53.552;9.980;2023-07-20T06:29:03;4.35;;;1.67;;
17959;SDS011;9105;53.552;9.980;2023-07-20T06:31:28;2.15;;;1.20;;
17959;SDS011;9105;53.552;9.980;2023-07-20T06:33:54;1.75;;;1.20;;
17959;SDS011;9105;53.552;9.980;2023-07-20T06:36:19;1.95;;;1.20;;
17959;SDS011;9105;53.552;9.980;2023-07-20T06:38:45;2.92;;;1.50;;
17959;SDS011;9105;53.552;9.980;2023-07-20T06:41:10;4.20;;;1.40;;
17959;SDS011;9105;53.552;9.980;2023-07-20T06:43:36;2.53;;;1.40;;
17959;SDS011;9105;53.552;9.980;2023-07-20T06:46:01;3.65;;;1.40;;
17959;SDS011;9105;53.552;9.980;2023-07-20T06:48:27;5.88;;;1.50;;
17959;SDS011;9105;53.552;9.980;2023-07-20T06:50:52;2.55;;;1.30;;
17959;SDS011;9105;53.552;9.980;2023-07-20T06:53:18;3.72;;;1.35;;
17959;SDS011;9105;53.552;9.980;2023-07-20T06:55:44;3.35;;;1.40;;
17959;SDS011;9105;53.552;9.980;2023-07-20T06:58:10;3.95;;;1.40;;
17959;SDS011;9105;53.552;9.980;2023-07-20T07:00:36;2.90;;;1.20;;
17959;SDS011;9105;53.552;9.980;2023-07-20T07:03:01;3.15;;;1.17;;
17959;SDS011;9105;53.552;9.980;2023-07-20T07:05:27;3.33;;;1.40;;
17959;SDS011;9105;53.552;9.980;2023-07-20T07:07:53;4.10;;;1.52;;
17959;SDS011;9105;53.552;9.980;2023-07-20T07:10:18;3.55;;;1.38;;
17959;SDS011;9105;53.552;9.980;2023-07-20T07:12:44;3.15;;;1.35;;
17959;SDS011;9105;53.552;9.980;2023-07-20T07:15:09;4.30;;;1.40;;
17959;SDS011;9105;53.552;9.980;2023-07-20T07:17:35;5.93;;;1.63;;
17959;SDS011;9105;53.552;9.980;2023-07-20T07:20:01;3.33;;;1.40;;
17959;SDS011;9105;53.552;9.980;2023-07-20T07:22:26;3.70;;;1.45;;
17959;SDS011;9105;53.552;9.980;2023-07-20T07:24:52;3.95;;;1.52;;
17959;SDS011;9105;53.552;9.980;2023-07-20T07:27:19;5.82;;;1.63;;
17959;SDS011;9105;53.552;9.980;2023-07-20T07:29:44;11.88;;;1.75;;
17959;SDS011;9105;53.552;9.980;2023-07-20T07:32:10;3.95;;;1.42;;
17959;SDS011;9105;53.552;9.980;2023-07-20T07:34:36;3.97;;;1.50;;
17959;SDS011;9105;53.552;9.980;2023-07-20T07:37:02;4.25;;;1.58;;
17959;SDS011;9105;53.552;9.980;2023-07-20T07:39:29;6.90;;;1.52;;
17959;SDS011;9105;53.552;9.980;2023-07-20T07:41:55;5.80;;;1.50;;
17959;SDS011;9105;53.552;9.980;2023-07-20T07:44:21;4.63;;;2.20;;
17959;SDS011;9105;53.552;9.980;2023-07-20T07:46:47;4.72;;;2.00;;
17959;SDS011;9105;53.552;9.980;2023-07-20T07:49:12;6.40;;;2.20;;
17959;SDS011;9105;53.552;9.980;2023-07-20T07:51:38;5.95;;;1.85;;
17959;SDS011;9105;53.552;9.980;2023-07-20T07:54:03;5.35;;;2.08;;
17959;SDS011;9105;53.552;9.980;2023-07-20T07:56:29;6.38;;;2.05;;
17959;SDS011;9105;53.552;9.980;2023-07-20T07:58:54;4.07;;;2.00;;
17959;SDS011;9105;53.552;9.980;2023-07-20T08:01:20;5.25;;;2.35;;
17959;SDS011;9105;53.552;9.980;2023-07-20T08:03:45;8.30;;;2.42;;
17959;SDS011;9105;53.552;9.980;2023-07-20T08:06:15;6.13;;;2.72;;
17959;SDS011;9105;53.552;9.980;2023-07-20T08:08:41;6.93;;;2.47;;
17959;SDS011;9105;53.552;9.980;2023-07-20T08:11:07;4.85;;;2.45;;
17959;SDS011;9105;53.552;9.980;2023-07-20T08:13:33;6.15;;;2.30;;
17959;SDS011;9105;53.552;9.980;2023-07-20T08:15:58;5.90;;;2.38;;
17959;SDS011;9105;53.552;9.980;2023-07-20T08:18:24;6.18;;;2.65;;
17959;SDS011;9105;53.552;9.980;2023-07-20T08:20:49;7.28;;;3.08;;
17959;SDS011;9105;53.552;9.980;2023-07-20T08:23:15;7.13;;;2.83;;
17959;SDS011;9105;53.552;9.980;2023-07-20T08:25:41;6.47;;;2.70;;
17959;SDS011;9105;53.552;9.980;2023-07-20T08:28:13;4.40;;;1.70;;
17959;SDS011;9105;53.552;9.980;2023-07-20T08:30:39;7.65;;;2.67;;
17959;SDS011;9105;53.552;9.980;2023-07-20T08:33:08;6.68;;;2.20;;
17959;SDS011;9105;53.552;9.980;2023-07-20T08:35:38;8.45;;;2.58;;
17959;SDS011;9105;53.552;9.980;2023-07-20T08:38:03;9.15;;;2.60;;
17959;SDS011;9105;53.552;9.980;2023-07-20T08:40:32;7.50;;;2.28;;
17959;SDS011;9105;53.552;9.980;2023-07-20T08:45:25;6.70;;;2.38;;
17959;SDS011;9105;53.552;9.980;2023-07-20T08:47:51;7.72;;;2.20;;
17959;SDS011;9105;53.552;9.980;2023-07-20T08:50:17;7.10;;;2.35;;
17959;SDS011;9105;53.552;9.980;2023-07-20T08:52:42;7.00;;;2.33;;
17959;SDS011;9105;53.552;9.980;2023-07-20T08:55:08;5.13;;;2.10;;
17959;SDS011;9105;53.552;9.980;2023-07-20T08:57:34;8.45;;;2.50;;
17959;SDS011;9105;53.552;9.980;2023-07-20T09:00:04;4.80;;;2.10;;
17959;SDS011;9105;53.552;9.980;2023-07-20T09:02:33;5.93;;;2.05;;
17959;SDS011;9105;53.552;9.980;2023-07-20T09:05:00;7.00;;;2.25;;
17959;SDS011;9105;53.552;9.980;2023-07-20T09:07:26;5.78;;;2.28;;
17959;SDS011;9105;53.552;9.980;2023-07-20T09:09:51;5.45;;;2.40;;
17959;SDS011;9105;53.552;9.980;2023-07-20T09:12:17;5.80;;;2.47;;
17959;SDS011;9105;53.552;9.980;2023-07-20T09:14:43;8.38;;;2.70;;
17959;SDS011;9105;53.552;9.980;2023-07-20T09:17:12;6.57;;;2.17;;
17959;SDS011;9105;53.552;9.980;2023-07-20T09:19:39;6.85;;;2.60;;
17959;SDS011;9105;53.552;9.980;2023-07-20T09:22:05;4.50;;;2.00;;
17959;SDS011;9105;53.552;9.980;2023-07-20T09:24:30;6.20;;;2.17;;
17959;SDS011;9105;53.552;9.980;2023-07-20T09:26:57;5.70;;;2.40;;
17959;SDS011;9105;53.552;9.980;2023-07-20T09:29:26;8.05;;;2.67;;
17959;SDS011;9105;53.552;9.980;2023-07-20T09:32:04;4.55;;;1.95;;
17959;SDS011;9105;53.552;9.980;2023-07-20T09:34:30;4.40;;;1.58;;
17959;SDS011;9105;53.552;9.980;2023-07-20T09:36:59;4.40;;;1.27;;
17959;SDS011;9105;53.552;9.980;2023-07-20T09:39:25;4.90;;;1.50;;
17959;SDS011;9105;53.552;9.980;2023-07-20T09:41:51;5.20;;;1.52;;
17959;SDS011;9105;53.552;9.980;2023-07-20T09:44:17;4.90;;;1.50;;
17959;SDS011;9105;53.552;9.980;2023-07-20T09:46:50;3.38;;;1.45;;
17959;SDS011;9105;53.552;9.980;2023-07-20T09:49:19;3.00;;;1.40;;
17959;SDS011;9105;53.552;9.980;2023-07-20T09:51:45;3.83;;;1.30;;
17959;SDS011;9105;53.552;9.980;2023-07-20T09:54:11;4.53;;;1.50;;
17959;SDS011;9105;53.552;9.980;2023-07-20T09:56:36;7.60;;;1.70;;
17959;SDS011;9105;53.552;9.980;2023-07-20T09:59:04;5.68;;;1.30;;
17959;SDS011;9105;53.552;9.980;2023-07-20T10:01:29;4.47;;;1.02;;
17959;SDS011;9105;53.552;9.980;2023-07-20T10:03:57;3.72;;;1.20;;
17959;SDS011;9105;53.552;9.980;2023-07-20T10:06:24;5.28;;;1.10;;
17959;SDS011;9105;53.552;9.980;2023-07-20T10:08:52;3.33;;;1.17;;
17959;SDS011;9105;53.552;9.980;2023-07-20T10:11:18;5.13;;;1.05;;
17959;SDS011;9105;53.552;9.980;2023-07-20T10:13:44;2.17;;;1.00;;
17959;SDS011;9105;53.552;9.980;2023-07-20T10:16:11;2.60;;;1.10;;
17959;SDS011;9105;53.552;9.980;2023-07-20T10:21:26;2.55;;;1.10;;
17959;SDS011;9105;53.552;9.980;2023-07-20T10:23:53;4.32;;;1.20;;
17959;SDS011;9105;53.552;9.980;2023-07-20T10:26:19;3.03;;;1.05;;
17959;SDS011;9105;53.552;9.980;2023-07-20T10:28:45;4.75;;;1.17;;
17959;SDS011;9105;53.552;9.980;2023-07-20T10:31:11;2.38;;;1.02;;
17959;SDS011;9105;53.552;9.980;2023-07-20T10:33:38;4.20;;;1.00;;
17959;SDS011;9105;53.552;9.980;2023-07-20T10:36:04;7.10;;;0.82;;
17959;SDS011;9105;53.552;9.980;2023-07-20T10:38:40;2.90;;;0.88;;
17959;SDS011;9105;53.552;9.980;2023-07-20T10:41:20;5.35;;;1.13;;
17959;SDS011;9105;53.552;9.980;2023-07-20T10:43:47;2.58;;;1.10;;
17959;SDS011;9105;53.552;9.980;2023-07-20T10:46:13;3.85;;;1.20;;
17959;SDS011;9105;53.552;9.980;2023-07-20T10:51:27;2.75;;;1.00;;
17959;SDS011;9105;53.552;9.980;2023-07-20T10:53:54;3.90;;;0.80;;
17959;SDS011;9105;53.552;9.980;2023-07-20T10:56:22;3.08;;;1.30;;
17959;SDS011;9105;53.552;9.980;2023-07-20T10:58:48;5.18;;;1.02;;
17959;SDS011;9105;53.552;9.980;2023-07-20T11:01:15;4.43;;;1.13;;
17959;SDS011;9105;53.552;9.980;2023-07-20T11:03:42;1.73;;;0.80;;
17959;SDS011;9105;53.552;9.980;2023-07-20T11:06:29;5.70;;;1.40;;
17959;SDS011;9105;53.552;9.980;2023-07-20T11:09:12;9.82;;;1.45;;
17959;SDS011;9105;53.552;9.980;2023-07-20T11:11:42;9.52;;;2.42;;
17959;SDS011;9105;53.552;9.980;2023-07-20T11:14:24;3.80;;;1.40;;
17959;SDS011;9105;53.552;9.980;2023-07-20T11:16:51;6.78;;;1.55;;
17959;SDS011;9105;53.552;9.980;2023-07-20T11:19:18;4.05;;;1.55;;
17959;SDS011;9105;53.552;9.980;2023-07-20T11:21:46;3.85;;;1.75;;
17959;SDS011;9105;53.552;9.980;2023-07-20T11:24:12;7.25;;;1.60;;
17959;SDS011;9105;53.552;9.980;2023-07-20T11:26:42;3.80;;;1.33;;
17959;SDS011;9105;53.552;9.980;2023-07-20T11:29:08;2.95;;;1.27;;
17959;SDS011;9105;53.552;9.980;2023-07-20T11:31:37;8.27;;;1.63;;
17959;SDS011;9105;53.552;9.980;2023-07-20T11:34:03;6.15;;;1.60;;
17959;SDS011;9105;53.552;9.980;2023-07-20T11:36:29;5.85;;;1.38;;
17959;SDS011;9105;53.552;9.980;2023-07-20T11:38:54;4.63;;;1.20;;
17959;SDS011;9105;53.552;9.980;2023-07-20T11:41:20;3.15;;;1.35;;
17959;SDS011;9105;53.552;9.980;2023-07-20T11:43:46;2.47;;;0.90;;
17959;SDS011;9105;53.552;9.980;2023-07-20T11:46:12;4.25;;;1.00;;
17959;SDS011;9105;53.552;9.980;2023-07-20T11:48:37;3.55;;;0.90;;
17959;SDS011;9105;53.552;9.980;2023-07-20T11:51:05;1.90;;;0.70;;
17959;SDS011;9105;53.552;9.980;2023-07-20T11:53:30;3.80;;;1.00;;
17959;SDS011;9105;53.552;9.980;2023-07-20T11:55:58;2.05;;;0.73;;
17959;SDS011;9105;53.552;9.980;2023-07-20T11:58:24;1.98;;;0.70;;
17959;SDS011;9105;53.552;9.980;2023-07-20T12:00:49;2.17;;;1.00;;
17959;SDS011;9105;53.552;9.980;2023-07-20T12:03:15;4.85;;;1.42;;
17959;SDS011;9105;53.552;9.980;2023-07-20T12:05:40;3.45;;;0.90;;
17959;SDS011;9105;53.552;9.980;2023-07-20T12:08:06;3.72;;;1.00;;
17959;SDS011;9105;53.552;9.980;2023-07-20T12:10:32;5.15;;;1.35;;
17959;SDS011;9105;53.552;9.980;2023-07-20T12:13:01;2.88;;;1.13;;
17959;SDS011;9105;53.552;9.980;2023-07-20T12:15:29;4.07;;;1.00;;
17959;SDS011;9105;53.552;9.980;2023-07-20T12:18:00;4.57;;;1.05;;
17959;SDS011;9105;53.552;9.980;2023-07-20T12:20:34;5.47;;;1.25;;
17959;SDS011;9105;53.552;9.980;2023-07-20T12:25:40;4.00;;;1.08;;
17959;SDS011;9105;53.552;9.980;2023-07-20T12:30:39;4.80;;;1.20;;
17959;SDS011;9105;53.552;9.980;2023-07-20T12:33:06;5.43;;;1.60;;
17959;SDS011;9105;53.552;9.980;2023-07-20T12:35:32;3.83;;;1.23;;
17959;SDS011;9105;53.552;9.980;2023-07-20T12:37:58;5.45;;;1.20;;
17959;SDS011;9105;53.552;9.980;2023-07-20T12:40:24;5.43;;;1.58;;
17959;SDS011;9105;53.552;9.980;2023-07-20T12:42:50;4.18;;;1.40;;
17959;SDS011;9105;53.552;9.980;2023-07-20T12:45:15;4.35;;;1.38;;
17959;SDS011;9105;53.552;9.980;2023-07-20T12:47:41;4.18;;;1.45;;
17959;SDS011;9105;53.552;9.980;2023-07-20T12:50:08;6.95;;;1.58;;
17959;SDS011;9105;53.552;9.980;2023-07-20T12:52:35;6.40;;;1.50;;
17959;SDS011;9105;53.552;9.980;2023-07-20T12:55:02;3.83;;;1.42;;
17959;SDS011;9105;53.552;9.980;2023-07-20T12:57:28;5.60;;;1.55;;
17959;SDS011;9105;53.552;9.980;2023-07-20T12:59:54;6.00;;;1.60;;
17959;SDS011;9105;53.552;9.980;2023-07-20T13:02:20;6.65;;;1.75;;
17959;SDS011;9105;53.552;9.980;2023-07-20T13:04:45;5.55;;;1.33;;
17959;SDS011;9105;53.552;9.980;2023-07-20T13:07:10;4.10;;;1.40;;
17959;SDS011;9105;53.552;9.980;2023-07-20T13:09:38;4.23;;;1.57;;
17959;SDS011;9105;53.552;9.980;2023-07-20T13:12:04;4.72;;;1.40;;
17959;SDS011;9105;53.552;9.980;2023-07-20T13:14:29;4.70;;;1.20;;
17959;SDS011;9105;53.552;9.980;2023-07-20T13:16:55;2.97;;;1.08;;
17959;SDS011;9105;53.552;9.980;2023-07-20T13:19:21;4.25;;;1.17;;
17959;SDS011;9105;53.552;9.980;2023-07-20T13:21:46;2.53;;;1.48;;
17959;SDS011;9105;53.552;9.980;2023-07-20T13:24:12;3.42;;;1.00;;
17959;SDS011;9105;53.552;9.980;2023-07-20T13:26:37;2.53;;;0.93;;
17959;SDS011;9105;53.552;9.980;2023-07-20T13:29:03;3.90;;;1.20;;
17959;SDS011;9105;53.552;9.980;2023-07-20T13:31:28;2.90;;;1.00;;
17959;SDS011;9105;53.552;9.980;2023-07-20T13:33:54;6.65;;;1.50;;
17959;SDS011;9105;53.552;9.980;2023-07-20T13:36:20;2.83;;;1.10;;
17959;SDS011;9105;53.552;9.980;2023-07-20T13:38:46;4.13;;;1.00;;
17959;SDS011;9105;53.552;9.980;2023-07-20T13:41:13;2.63;;;0.88;;
17959;SDS011;9105;53.552;9.980;2023-07-20T13:43:40;2.97;;;1.20;;
17959;SDS011;9105;53.552;9.980;2023-07-20T13:46:05;4.28;;;1.20;;
17959;SDS011;9105;53.552;9.980;2023-07-20T13:48:31;4.43;;;1.10;;
17959;SDS011;9105;53.552;9.980;2023-07-20T13:50:56;2.65;;;0.98;;
17959;SDS011;9105;53.552;9.980;2023-07-20T13:53:22;5.28;;;1.08;;
17959;SDS011;9105;53.552;9.980;2023-07-20T13:55:47;3.13;;;1.10;;
17959;SDS011;9105;53.552;9.980;2023-07-20T13:58:13;2.58;;;1.20;;
17959;SDS011;9105;53.552;9.980;2023-07-20T14:00:38;3.38;;;1.02;;
17959;SDS011;9105;53.552;9.980;2023-07-20T14:03:04;3.55;;;1.08;;
17959;SDS011;9105;53.552;9.980;2023-07-20T14:05:29;1.02;;;0.80;;
17959;SDS011;9105;53.552;9.980;2023-07-20T14:07:55;3.33;;;0.98;;
17959;SDS011;9105;53.552;9.980;2023-07-20T14:10:20;3.72;;;0.80;;
17959;SDS011;9105;53.552;9.980;2023-07-20T14:12:46;1.40;;;0.75;;
17959;SDS011;9105;53.552;9.980;2023-07-20T14:15:11;2.78;;;1.23;;
17959;SDS011;9105;53.552;9.980;2023-07-20T14:17:37;3.63;;;0.95;;
17959;SDS011;9105;53.552;9.980;2023-07-20T14:20:02;2.63;;;0.98;;
17959;SDS011;9105;53.552;9.980;2023-07-20T14:22:31;5.75;;;1.30;;
17959;SDS011;9105;53.552;9.980;2023-07-20T14:24:56;3.30;;;0.93;;
17959;SDS011;9105;53.552;9.980;2023-07-20T14:27:22;4.78;;;0.90;;
17959;SDS011;9105;53.552;9.980;2023-07-20T14:29:47;2.08;;;0.80;;
17959;SDS011;9105;53.552;9.980;2023-07-20T14:32:13;3.35;;;0.95;;
17959;SDS011;9105;53.552;9.980;2023-07-20T14:34:38;2.28;;;1.00;;
17959;SDS011;9105;53.552;9.980;2023-07-20T14:37:05;3.80;;;1.10;;
17959;SDS011;9105;53.552;9.980;2023-07-20T14:39:31;3.72;;;1.20;;
17959;SDS011;9105;53.552;9.980;2023-07-20T14:41:56;2.45;;;0.85;;
17959;SDS011;9105;53.552;9.980;2023-07-20T14:44:22;5.20;;;1.02;;
17959;SDS011;9105;53.552;9.980;2023-07-20T14:46:48;1.50;;;0.90;;
17959;SDS011;9105;53.552;9.980;2023-07-20T14:49:13;3.10;;;0.90;;
17959;SDS011;9105;53.552;9.980;2023-07-20T14:51:39;2.88;;;1.00;;
17959;SDS011;9105;53.552;9.980;2023-07-20T14:54:09;2.47;;;0.90;;
17959;SDS011;9105;53.552;9.980;2023-07-20T14:56:34;2.78;;;0.75;;
17959;SDS011;9105;53.552;9.980;2023-07-20T14:59:00;2.83;;;1.02;;
17959;SDS011;9105;53.552;9.980;2023-07-20T15:01:26;3.45;;;0.93;;
17959;SDS011;9105;53.552;9.980;2023-07-20T15:03:51;4.07;;;1.20;;
17959;SDS011;9105;53.552;9.980;2023-07-20T15:06:18;4.22;;;1.38;;
17959;SDS011;9105;53.552;9.980;2023-07-20T15:08:44;1.58;;;1.00;;
17959;SDS011;9105;53.552;9.980;2023-07-20T15:11:09;2.60;;;0.93;;
17959;SDS011;9105;53.552;9.980;2023-07-20T15:13:35;3.35;;;1.30;;
17959;SDS011;9105;53.552;9.980;2023-07-20T15:16:00;2.35;;;1.05;;